Jasper, Florida
Current Conditions -  °F | °C
As of 11:35 AM on Tuesday 21 Oct 2014 (Local Time) from K24J Reporting Station
Clear Clear  
Wind Chill: 77°   Ceiling: Unl
Heat Index: 79°   Visibility: 10mi
Dew Point: 61°   Wind: 8mph
Humidity: 57%   Direction: 20°NNE
Pressure: 30.02"   Gusts: NA
Location:  30.52°N, 82.95°W
Report Text: K24J 211535Z AUTO 02007KT 10SM CLR 25/16 A3002 RMK AO1
Loading
Personal Weather Stations






























Interactive Weather Map
Tropical Storm Tracking
New forecast layout! Learn more

10-Day Weather Forecast

Advertisements
Track Severe Weather on mobile